sensor_id;sensor_type;location;lat;lon;timestamp;P1;durP1;ratioP1;P2;durP2;ratioP2
54599;SDS011;40500;51.084;16.958;2022-10-16T00:00:25;5.70;;;4.20;;
54599;SDS011;40500;51.084;16.958;2022-10-16T00:02:55;4.80;;;4.30;;
54599;SDS011;40500;51.084;16.958;2022-10-16T00:05:25;4.20;;;3.70;;
54599;SDS011;40500;51.084;16.958;2022-10-16T00:07:56;5.70;;;3.90;;
54599;SDS011;40500;51.084;16.958;2022-10-16T00:10:27;6.50;;;4.50;;
54599;SDS011;40500;51.084;16.958;2022-10-16T00:12:57;4.40;;;4.00;;
54599;SDS011;40500;51.084;16.958;2022-10-16T00:15:27;5.10;;;4.10;;
54599;SDS011;40500;51.084;16.958;2022-10-16T00:18:03;4.10;;;3.70;;
54599;SDS011;40500;51.084;16.958;2022-10-16T00:20:35;4.10;;;3.60;;
54599;SDS011;40500;51.084;16.958;2022-10-16T00:23:05;4.00;;;3.20;;
54599;SDS011;40500;51.084;16.958;2022-10-16T00:25:35;4.20;;;3.80;;
54599;SDS011;40500;51.084;16.958;2022-10-16T00:28:06;4.50;;;3.90;;
54599;SDS011;40500;51.084;16.958;2022-10-16T00:30:38;5.30;;;3.70;;
54599;SDS011;40500;51.084;16.958;2022-10-16T00:33:09;4.20;;;3.80;;
54599;SDS011;40500;51.084;16.958;2022-10-16T00:35:39;4.70;;;4.00;;
54599;SDS011;40500;51.084;16.958;2022-10-16T00:38:10;4.40;;;3.80;;
54599;SDS011;40500;51.084;16.958;2022-10-16T00:40:40;5.30;;;4.30;;
54599;SDS011;40500;51.084;16.958;2022-10-16T00:43:13;4.00;;;3.60;;
54599;SDS011;40500;51.084;16.958;2022-10-16T00:47:26;5.90;;;4.50;;
54599;SDS011;40500;51.084;16.958;2022-10-16T00:50:00;4.50;;;4.10;;
54599;SDS011;40500;51.084;16.958;2022-10-16T00:52:33;5.60;;;4.80;;
54599;SDS011;40500;51.084;16.958;2022-10-16T00:55:03;7.10;;;4.30;;
54599;SDS011;40500;51.084;16.958;2022-10-16T00:57:35;5.00;;;4.50;;
54599;SDS011;40500;51.084;16.958;2022-10-16T03:00:59;5.70;;;4.60;;
54599;SDS011;40500;51.084;16.958;2022-10-16T03:03:30;6.20;;;4.60;;
54599;SDS011;40500;51.084;16.958;2022-10-16T03:07:13;6.80;;;5.00;;
54599;SDS011;40500;51.084;16.958;2022-10-16T03:09:43;6.00;;;5.40;;
54599;SDS011;40500;51.084;16.958;2022-10-16T03:12:13;5.60;;;4.80;;
54599;SDS011;40500;51.084;16.958;2022-10-16T03:14:44;5.00;;;3.80;;
54599;SDS011;40500;51.084;16.958;2022-10-16T03:18:54;6.70;;;5.20;;
54599;SDS011;40500;51.084;16.958;2022-10-16T03:21:25;5.50;;;4.90;;
54599;SDS011;40500;51.084;16.958;2022-10-16T03:23:55;5.30;;;4.70;;
54599;SDS011;40500;51.084;16.958;2022-10-16T03:26:25;6.30;;;5.20;;
54599;SDS011;40500;51.084;16.958;2022-10-16T03:28:56;7.10;;;5.20;;
54599;SDS011;40500;51.084;16.958;2022-10-16T03:31:26;6.40;;;4.90;;
54599;SDS011;40500;51.084;16.958;2022-10-16T03:33:58;6.10;;;4.60;;
54599;SDS011;40500;51.084;16.958;2022-10-16T03:36:29;6.20;;;5.00;;
54599;SDS011;40500;51.084;16.958;2022-10-16T03:39:00;5.20;;;4.70;;
54599;SDS011;40500;51.084;16.958;2022-10-16T03:41:32;7.60;;;5.90;;
54599;SDS011;40500;51.084;16.958;2022-10-16T03:44:02;7.50;;;5.30;;
54599;SDS011;40500;51.084;16.958;2022-10-16T03:46:32;5.80;;;5.10;;
54599;SDS011;40500;51.084;16.958;2022-10-16T03:49:03;6.80;;;5.30;;
54599;SDS011;40500;51.084;16.958;2022-10-16T03:51:36;6.00;;;4.80;;
54599;SDS011;40500;51.084;16.958;2022-10-16T03:57:17;8.10;;;5.50;;
54599;SDS011;40500;51.084;16.958;2022-10-16T03:59:44;6.30;;;5.10;;
54599;SDS011;40500;51.084;16.958;2022-10-16T04:02:12;5.60;;;5.00;;
54599;SDS011;40500;51.084;16.958;2022-10-16T04:04:40;8.40;;;4.60;;
54599;SDS011;40500;51.084;16.958;2022-10-16T04:07:08;6.20;;;4.80;;
54599;SDS011;40500;51.084;16.958;2022-10-16T04:09:38;5.30;;;4.40;;
54599;SDS011;40500;51.084;16.958;2022-10-16T04:12:05;5.50;;;4.60;;
54599;SDS011;40500;51.084;16.958;2022-10-16T04:14:53;7.00;;;5.40;;
54599;SDS011;40500;51.084;16.958;2022-10-16T04:17:23;5.80;;;4.80;;
54599;SDS011;40500;51.084;16.958;2022-10-16T04:19:55;5.20;;;4.60;;
54599;SDS011;40500;51.084;16.958;2022-10-16T04:22:26;7.90;;;5.70;;
54599;SDS011;40500;51.084;16.958;2022-10-16T04:24:58;5.70;;;5.10;;
54599;SDS011;40500;51.084;16.958;2022-10-16T04:27:28;6.70;;;5.00;;
54599;SDS011;40500;51.084;16.958;2022-10-16T04:29:58;6.00;;;5.30;;
54599;SDS011;40500;51.084;16.958;2022-10-16T04:32:29;5.80;;;5.10;;
54599;SDS011;40500;51.084;16.958;2022-10-16T04:35:04;5.80;;;5.20;;
54599;SDS011;40500;51.084;16.958;2022-10-16T04:37:35;6.20;;;5.40;;
54599;SDS011;40500;51.084;16.958;2022-10-16T04:40:06;5.70;;;4.70;;
54599;SDS011;40500;51.084;16.958;2022-10-16T04:42:38;8.30;;;5.70;;
54599;SDS011;40500;51.084;16.958;2022-10-16T04:45:08;6.00;;;5.40;;
54599;SDS011;40500;51.084;16.958;2022-10-16T04:47:45;7.20;;;4.80;;
54599;SDS011;40500;51.084;16.958;2022-10-16T04:50:16;6.00;;;5.30;;
54599;SDS011;40500;51.084;16.958;2022-10-16T04:52:46;8.20;;;5.20;;
54599;SDS011;40500;51.084;16.958;2022-10-16T04:55:16;7.10;;;5.20;;
54599;SDS011;40500;51.084;16.958;2022-10-16T04:57:47;6.40;;;5.50;;
54599;SDS011;40500;51.084;16.958;2022-10-16T05:00:19;6.90;;;5.10;;
54599;SDS011;40500;51.084;16.958;2022-10-16T05:02:50;5.90;;;5.10;;
54599;SDS011;40500;51.084;16.958;2022-10-16T05:05:21;6.70;;;5.80;;
54599;SDS011;40500;51.084;16.958;2022-10-16T05:07:51;7.80;;;5.30;;
54599;SDS011;40500;51.084;16.958;2022-10-16T05:10:21;7.00;;;5.80;;
54599;SDS011;40500;51.084;16.958;2022-10-16T05:12:52;6.60;;;5.10;;
54599;SDS011;40500;51.084;16.958;2022-10-16T05:15:23;6.90;;;5.60;;
54599;SDS011;40500;51.084;16.958;2022-10-16T05:17:54;8.40;;;5.70;;
54599;SDS011;40500;51.084;16.958;2022-10-16T05:20:24;8.00;;;6.10;;
54599;SDS011;40500;51.084;16.958;2022-10-16T05:22:55;6.90;;;5.00;;
54599;SDS011;40500;51.084;16.958;2022-10-16T05:25:29;5.00;;;4.40;;
54599;SDS011;40500;51.084;16.958;2022-10-16T05:27:59;5.70;;;5.20;;
54599;SDS011;40500;51.084;16.958;2022-10-16T05:30:30;6.30;;;4.90;;
54599;SDS011;40500;51.084;16.958;2022-10-16T05:33:02;7.80;;;5.70;;
54599;SDS011;40500;51.084;16.958;2022-10-16T05:35:32;6.30;;;5.30;;
54599;SDS011;40500;51.084;16.958;2022-10-16T05:38:08;7.60;;;6.20;;
54599;SDS011;40500;51.084;16.958;2022-10-16T05:40:41;5.70;;;5.10;;
54599;SDS011;40500;51.084;16.958;2022-10-16T06:44:45;5.30;;;4.10;;
54599;SDS011;40500;51.084;16.958;2022-10-16T06:47:16;4.20;;;3.70;;
54599;SDS011;40500;51.084;16.958;2022-10-16T06:49:49;5.80;;;4.20;;
54599;SDS011;40500;51.084;16.958;2022-10-16T06:52:22;3.90;;;3.50;;
54599;SDS011;40500;51.084;16.958;2022-10-16T06:54:52;6.20;;;4.50;;
54599;SDS011;40500;51.084;16.958;2022-10-16T06:57:23;4.10;;;3.70;;
54599;SDS011;40500;51.084;16.958;2022-10-16T06:59:54;3.70;;;3.40;;
54599;SDS011;40500;51.084;16.958;2022-10-16T07:02:24;4.10;;;3.60;;
54599;SDS011;40500;51.084;16.958;2022-10-16T07:04:56;4.30;;;3.80;;
54599;SDS011;40500;51.084;16.958;2022-10-16T07:07:29;4.50;;;3.80;;
54599;SDS011;40500;51.084;16.958;2022-10-16T07:10:00;4.20;;;3.40;;
54599;SDS011;40500;51.084;16.958;2022-10-16T07:12:31;4.20;;;3.80;;
54599;SDS011;40500;51.084;16.958;2022-10-16T07:15:02;4.50;;;3.50;;
54599;SDS011;40500;51.084;16.958;2022-10-16T07:17:33;4.00;;;3.60;;
54599;SDS011;40500;51.084;16.958;2022-10-16T07:20:04;5.30;;;4.20;;
54599;SDS011;40500;51.084;16.958;2022-10-16T07:22:35;6.80;;;4.20;;
54599;SDS011;40500;51.084;16.958;2022-10-16T07:25:06;3.80;;;3.10;;
54599;SDS011;40500;51.084;16.958;2022-10-16T07:27:37;3.90;;;3.60;;
54599;SDS011;40500;51.084;16.958;2022-10-16T07:30:08;4.40;;;3.00;;
54599;SDS011;40500;51.084;16.958;2022-10-16T07:32:39;5.40;;;3.40;;
54599;SDS011;40500;51.084;16.958;2022-10-16T07:35:09;4.00;;;3.10;;
54599;SDS011;40500;51.084;16.958;2022-10-16T07:37:43;3.20;;;2.90;;
54599;SDS011;40500;51.084;16.958;2022-10-16T07:42:05;3.00;;;2.80;;
54599;SDS011;40500;51.084;16.958;2022-10-16T07:44:34;3.10;;;2.80;;
54599;SDS011;40500;51.084;16.958;2022-10-16T07:47:02;3.20;;;2.80;;
54599;SDS011;40500;51.084;16.958;2022-10-16T07:49:30;4.50;;;2.90;;
54599;SDS011;40500;51.084;16.958;2022-10-16T07:51:58;5.40;;;2.50;;
54599;SDS011;40500;51.084;16.958;2022-10-16T07:54:25;4.10;;;2.90;;
54599;SDS011;40500;51.084;16.958;2022-10-16T07:56:53;3.70;;;2.80;;
54599;SDS011;40500;51.084;16.958;2022-10-16T07:59:21;3.30;;;2.70;;
54599;SDS011;40500;51.084;16.958;2022-10-16T08:01:49;3.60;;;2.70;;
54599;SDS011;40500;51.084;16.958;2022-10-16T08:04:17;4.30;;;2.80;;
54599;SDS011;40500;51.084;16.958;2022-10-16T08:06:44;3.10;;;2.60;;
54599;SDS011;40500;51.084;16.958;2022-10-16T08:09:12;2.60;;;2.40;;
54599;SDS011;40500;51.084;16.958;2022-10-16T08:11:39;2.50;;;2.20;;
54599;SDS011;40500;51.084;16.958;2022-10-16T08:14:07;2.60;;;2.30;;
54599;SDS011;40500;51.084;16.958;2022-10-16T08:16:34;2.70;;;2.50;;
54599;SDS011;40500;51.084;16.958;2022-10-16T08:19:02;2.20;;;2.00;;
54599;SDS011;40500;51.084;16.958;2022-10-16T08:21:29;2.50;;;2.30;;
54599;SDS011;40500;51.084;16.958;2022-10-16T08:23:57;2.70;;;2.30;;
54599;SDS011;40500;51.084;16.958;2022-10-16T08:26:25;2.30;;;2.10;;
54599;SDS011;40500;51.084;16.958;2022-10-16T08:28:53;2.70;;;2.50;;
54599;SDS011;40500;51.084;16.958;2022-10-16T08:31:22;2.40;;;2.10;;
54599;SDS011;40500;51.084;16.958;2022-10-16T08:33:50;1.90;;;1.80;;
54599;SDS011;40500;51.084;16.958;2022-10-16T08:36:18;2.50;;;2.30;;
54599;SDS011;40500;51.084;16.958;2022-10-16T08:38:47;2.80;;;2.10;;
54599;SDS011;40500;51.084;16.958;2022-10-16T08:44:24;2.60;;;2.40;;
54599;SDS011;40500;51.084;16.958;2022-10-16T08:47:04;2.20;;;2.00;;
54599;SDS011;40500;51.084;16.958;2022-10-16T08:49:39;3.60;;;1.90;;
54599;SDS011;40500;51.084;16.958;2022-10-16T08:52:10;3.50;;;2.10;;
54599;SDS011;40500;51.084;16.958;2022-10-16T08:54:41;3.30;;;2.10;;
54599;SDS011;40500;51.084;16.958;2022-10-16T08:57:14;3.10;;;2.70;;
54599;SDS011;40500;51.084;16.958;2022-10-16T08:59:50;2.30;;;2.10;;
54599;SDS011;40500;51.084;16.958;2022-10-16T09:02:23;2.60;;;2.40;;
54599;SDS011;40500;51.084;16.958;2022-10-16T09:04:59;3.50;;;2.20;;
54599;SDS011;40500;51.084;16.958;2022-10-16T09:07:38;2.10;;;1.90;;
54599;SDS011;40500;51.084;16.958;2022-10-16T09:12:48;1.80;;;1.70;;
54599;SDS011;40500;51.084;16.958;2022-10-16T09:17:56;2.00;;;1.60;;
54599;SDS011;40500;51.084;16.958;2022-10-16T09:20:38;2.00;;;1.90;;
54599;SDS011;40500;51.084;16.958;2022-10-16T09:23:14;1.80;;;1.70;;
54599;SDS011;40500;51.084;16.958;2022-10-16T09:25:45;3.70;;;2.30;;
54599;SDS011;40500;51.084;16.958;2022-10-16T09:28:15;2.20;;;2.00;;
54599;SDS011;40500;51.084;16.958;2022-10-16T09:30:44;4.20;;;2.10;;
54599;SDS011;40500;51.084;16.958;2022-10-16T09:33:12;1.90;;;1.70;;
54599;SDS011;40500;51.084;16.958;2022-10-16T09:35:42;5.40;;;1.80;;
54599;SDS011;40500;51.084;16.958;2022-10-16T09:40:38;1.80;;;1.60;;
54599;SDS011;40500;51.084;16.958;2022-10-16T09:43:15;2.00;;;1.80;;
54599;SDS011;40500;51.084;16.958;2022-10-16T09:45:56;2.20;;;2.00;;
54599;SDS011;40500;51.084;16.958;2022-10-16T09:48:25;2.10;;;1.90;;
54599;SDS011;40500;51.084;16.958;2022-10-16T09:51:00;2.00;;;1.90;;
54599;SDS011;40500;51.084;16.958;2022-10-16T09:53:38;2.90;;;1.70;;
54599;SDS011;40500;51.084;16.958;2022-10-16T09:56:09;2.80;;;2.00;;
54599;SDS011;40500;51.084;16.958;2022-10-16T09:58:43;2.80;;;2.00;;
54599;SDS011;40500;51.084;16.958;2022-10-16T10:01:16;4.10;;;1.80;;
54599;SDS011;40500;51.084;16.958;2022-10-16T10:03:43;2.20;;;2.00;;
54599;SDS011;40500;51.084;16.958;2022-10-16T10:06:17;2.20;;;2.00;;
54599;SDS011;40500;51.084;16.958;2022-10-16T10:08:55;2.20;;;2.00;;
54599;SDS011;40500;51.084;16.958;2022-10-16T10:11:37;1.90;;;1.80;;
54599;SDS011;40500;51.084;16.958;2022-10-16T10:14:08;2.50;;;2.10;;
54599;SDS011;40500;51.084;16.958;2022-10-16T10:16:43;1.80;;;1.70;;
54599;SDS011;40500;51.084;16.958;2022-10-16T10:19:13;2.00;;;1.80;;
54599;SDS011;40500;51.084;16.958;2022-10-16T10:21:42;2.60;;;1.80;;
54599;SDS011;40500;51.084;16.958;2022-10-16T10:24:11;2.70;;;1.90;;
54599;SDS011;40500;51.084;16.958;2022-10-16T10:26:41;2.20;;;2.00;;
54599;SDS011;40500;51.084;16.958;2022-10-16T10:29:16;1.90;;;1.80;;
54599;SDS011;40500;51.084;16.958;2022-10-16T10:31:54;1.70;;;1.60;;
54599;SDS011;40500;51.084;16.958;2022-10-16T10:34:35;1.90;;;1.80;;
54599;SDS011;40500;51.084;16.958;2022-10-16T10:37:22;2.20;;;1.90;;
54599;SDS011;40500;51.084;16.958;2022-10-16T10:40:04;2.30;;;1.90;;
54599;SDS011;40500;51.084;16.958;2022-10-16T10:42:41;2.40;;;1.80;;
54599;SDS011;40500;51.084;16.958;2022-10-16T10:45:20;3.60;;;2.20;;
54599;SDS011;40500;51.084;16.958;2022-10-16T10:48:17;1.80;;;1.60;;
54599;SDS011;40500;51.084;16.958;2022-10-16T10:50:52;2.30;;;1.40;;
54599;SDS011;40500;51.084;16.958;2022-10-16T10:53:27;2.80;;;1.80;;
54599;SDS011;40500;51.084;16.958;2022-10-16T10:56:07;2.00;;;1.70;;
54599;SDS011;40500;51.084;16.958;2022-10-16T11:01:47;1.50;;;1.40;;
54599;SDS011;40500;51.084;16.958;2022-10-16T11:04:27;1.50;;;1.40;;
54599;SDS011;40500;51.084;16.958;2022-10-16T11:07:11;1.40;;;1.30;;
54599;SDS011;40500;51.084;16.958;2022-10-16T11:09:49;1.80;;;1.70;;
54599;SDS011;40500;51.084;16.958;2022-10-16T11:12:25;2.90;;;1.70;;
54599;SDS011;40500;51.084;16.958;2022-10-16T11:15:02;1.60;;;1.50;;
54599;SDS011;40500;51.084;16.958;2022-10-16T11:17:41;2.20;;;1.90;;
54599;SDS011;40500;51.084;16.958;2022-10-16T11:20:18;2.10;;;1.90;;
54599;SDS011;40500;51.084;16.958;2022-10-16T11:22:53;1.80;;;1.60;;
54599;SDS011;40500;51.084;16.958;2022-10-16T11:25:27;2.40;;;1.60;;
54599;SDS011;40500;51.084;16.958;2022-10-16T11:28:01;1.70;;;1.60;;
54599;SDS011;40500;51.084;16.958;2022-10-16T11:30:39;2.60;;;1.70;;
54599;SDS011;40500;51.084;16.958;2022-10-16T11:33:20;4.90;;;1.60;;
54599;SDS011;40500;51.084;16.958;2022-10-16T11:36:01;1.70;;;1.60;;
54599;SDS011;40500;51.084;16.958;2022-10-16T11:38:38;2.20;;;1.70;;
54599;SDS011;40500;51.084;16.958;2022-10-16T11:41:15;1.60;;;1.50;;
54599;SDS011;40500;51.084;16.958;2022-10-16T11:43:52;1.80;;;1.60;;
54599;SDS011;40500;51.084;16.958;2022-10-16T11:46:33;1.50;;;1.40;;
54599;SDS011;40500;51.084;16.958;2022-10-16T11:49:27;2.20;;;1.80;;
54599;SDS011;40500;51.084;16.958;2022-10-16T11:52:03;1.70;;;1.60;;
54599;SDS011;40500;51.084;16.958;2022-10-16T11:54:47;1.80;;;1.70;;
54599;SDS011;40500;51.084;16.958;2022-10-16T11:57:24;1.40;;;1.30;;
54599;SDS011;40500;51.084;16.958;2022-10-16T11:59:58;1.90;;;1.70;;
54599;SDS011;40500;51.084;16.958;2022-10-16T12:02:36;1.90;;;1.50;;
54599;SDS011;40500;51.084;16.958;2022-10-16T12:05:21;1.50;;;1.40;;
54599;SDS011;40500;51.084;16.958;2022-10-16T12:08:00;1.80;;;1.60;;
54599;SDS011;40500;51.084;16.958;2022-10-16T12:10:37;1.70;;;1.60;;
54599;SDS011;40500;51.084;16.958;2022-10-16T12:16:19;1.90;;;1.70;;
54599;SDS011;40500;51.084;16.958;2022-10-16T12:19:02;2.90;;;2.10;;
54599;SDS011;40500;51.084;16.958;2022-10-16T12:21:41;3.40;;;1.80;;
54599;SDS011;40500;51.084;16.958;2022-10-16T12:24:21;2.70;;;2.00;;
54599;SDS011;40500;51.084;16.958;2022-10-16T12:26:57;1.90;;;1.80;;
54599;SDS011;40500;51.084;16.958;2022-10-16T12:29:32;1.90;;;1.80;;
54599;SDS011;40500;51.084;16.958;2022-10-16T12:32:05;6.90;;;2.50;;
54599;SDS011;40500;51.084;16.958;2022-10-16T12:35:18;2.40;;;2.20;;
54599;SDS011;40500;51.084;16.958;2022-10-16T12:37:50;2.60;;;2.40;;
54599;SDS011;40500;51.084;16.958;2022-10-16T12:40:25;2.70;;;2.30;;
54599;SDS011;40500;51.084;16.958;2022-10-16T12:42:58;4.30;;;2.60;;
54599;SDS011;40500;51.084;16.958;2022-10-16T12:45:39;2.50;;;2.30;;
54599;SDS011;40500;51.084;16.958;2022-10-16T12:48:19;4.80;;;2.40;;
54599;SDS011;40500;51.084;16.958;2022-10-16T12:51:19;2.90;;;2.40;;
54599;SDS011;40500;51.084;16.958;2022-10-16T12:53:59;2.70;;;2.50;;
54599;SDS011;40500;51.084;16.958;2022-10-16T12:56:39;2.70;;;2.40;;
54599;SDS011;40500;51.084;16.958;2022-10-16T13:01:56;2.20;;;2.00;;
54599;SDS011;40500;51.084;16.958;2022-10-16T13:04:52;2.20;;;1.90;;
54599;SDS011;40500;51.084;16.958;2022-10-16T13:07:41;2.30;;;2.20;;
54599;SDS011;40500;51.084;16.958;2022-10-16T13:10:23;2.60;;;2.30;;
54599;SDS011;40500;51.084;16.958;2022-10-16T13:16:00;2.60;;;2.30;;
54599;SDS011;40500;51.084;16.958;2022-10-16T13:18:41;2.40;;;2.00;;
54599;SDS011;40500;51.084;16.958;2022-10-16T13:21:26;2.40;;;2.20;;
54599;SDS011;40500;51.084;16.958;2022-10-16T13:24:10;2.40;;;2.20;;
54599;SDS011;40500;51.084;16.958;2022-10-16T13:26:51;2.60;;;2.20;;
54599;SDS011;40500;51.084;16.958;2022-10-16T13:29:30;4.60;;;2.30;;
54599;SDS011;40500;51.084;16.958;2022-10-16T13:32:01;2.50;;;2.30;;
54599;SDS011;40500;51.084;16.958;2022-10-16T13:34:44;2.40;;;2.30;;
54599;SDS011;40500;51.084;16.958;2022-10-16T13:37:19;3.50;;;2.60;;
54599;SDS011;40500;51.084;16.958;2022-10-16T13:39:51;2.80;;;2.30;;
54599;SDS011;40500;51.084;16.958;2022-10-16T13:42:30;3.00;;;2.30;;
54599;SDS011;40500;51.084;16.958;2022-10-16T13:45:01;2.80;;;2.40;;
54599;SDS011;40500;51.084;16.958;2022-10-16T13:47:32;3.10;;;2.40;;
54599;SDS011;40500;51.084;16.958;2022-10-16T13:50:03;2.90;;;2.40;;
54599;SDS011;40500;51.084;16.958;2022-10-16T13:52:34;3.80;;;2.20;;
54599;SDS011;40500;51.084;16.958;2022-10-16T13:55:09;3.10;;;2.10;;
54599;SDS011;40500;51.084;16.958;2022-10-16T13:57:41;2.60;;;2.40;;
54599;SDS011;40500;51.084;16.958;2022-10-16T14:00:22;3.70;;;2.30;;
54599;SDS011;40500;51.084;16.958;2022-10-16T14:02:58;1.90;;;1.80;;
54599;SDS011;40500;51.084;16.958;2022-10-16T14:05:33;2.70;;;2.40;;
54599;SDS011;40500;51.084;16.958;2022-10-16T14:08:03;2.40;;;2.10;;
54599;SDS011;40500;51.084;16.958;2022-10-16T14:10:33;2.30;;;2.10;;
54599;SDS011;40500;51.084;16.958;2022-10-16T14:13:04;2.40;;;2.20;;
54599;SDS011;40500;51.084;16.958;2022-10-16T14:15:45;2.10;;;1.90;;
54599;SDS011;40500;51.084;16.958;2022-10-16T14:18:20;2.40;;;1.90;;
54599;SDS011;40500;51.084;16.958;2022-10-16T14:21:02;2.60;;;1.80;;
54599;SDS011;40500;51.084;16.958;2022-10-16T14:23:33;2.40;;;2.20;;
54599;SDS011;40500;51.084;16.958;2022-10-16T14:26:16;2.40;;;2.20;;
54599;SDS011;40500;51.084;16.958;2022-10-16T14:28:48;3.80;;;2.10;;
54599;SDS011;40500;51.084;16.958;2022-10-16T14:31:32;2.20;;;2.00;;
54599;SDS011;40500;51.084;16.958;2022-10-16T14:34:04;2.50;;;2.20;;
54599;SDS011;40500;51.084;16.958;2022-10-16T14:36:48;2.40;;;2.20;;
54599;SDS011;40500;51.084;16.958;2022-10-16T14:39:19;3.80;;;2.10;;
54599;SDS011;40500;51.084;16.958;2022-10-16T14:41:51;2.30;;;2.10;;
54599;SDS011;40500;51.084;16.958;2022-10-16T14:44:26;3.00;;;2.30;;
54599;SDS011;40500;51.084;16.958;2022-10-16T14:47:05;4.20;;;2.50;;
54599;SDS011;40500;51.084;16.958;2022-10-16T14:49:38;2.00;;;1.80;;
54599;SDS011;40500;51.084;16.958;2022-10-16T14:52:11;2.60;;;2.20;;
54599;SDS011;40500;51.084;16.958;2022-10-16T14:54:42;2.10;;;1.90;;
54599;SDS011;40500;51.084;16.958;2022-10-16T14:57:17;2.70;;;2.20;;
54599;SDS011;40500;51.084;16.958;2022-10-16T14:59:49;5.50;;;2.20;;
54599;SDS011;40500;51.084;16.958;2022-10-16T15:02:22;2.40;;;2.20;;
54599;SDS011;40500;51.084;16.958;2022-10-16T15:04:57;3.80;;;2.30;;
54599;SDS011;40500;51.084;16.958;2022-10-16T15:07:33;4.60;;;2.20;;
54599;SDS011;40500;51.084;16.958;2022-10-16T15:10:04;3.30;;;2.60;;
54599;SDS011;40500;51.084;16.958;2022-10-16T15:12:35;2.50;;;2.30;;
54599;SDS011;40500;51.084;16.958;2022-10-16T15:15:20;2.90;;;2.10;;
54599;SDS011;40500;51.084;16.958;2022-10-16T15:17:55;3.80;;;2.90;;
54599;SDS011;40500;51.084;16.958;2022-10-16T15:20:29;5.60;;;2.80;;
54599;SDS011;40500;51.084;16.958;2022-10-16T15:23:02;4.00;;;2.90;;
54599;SDS011;40500;51.084;16.958;2022-10-16T15:25:35;3.00;;;2.70;;
54599;SDS011;40500;51.084;16.958;2022-10-16T15:28:08;3.40;;;3.00;;
54599;SDS011;40500;51.084;16.958;2022-10-16T15:30:39;4.60;;;3.10;;
54599;SDS011;40500;51.084;16.958;2022-10-16T15:33:13;3.80;;;3.40;;
54599;SDS011;40500;51.084;16.958;2022-10-16T15:35:46;3.70;;;3.40;;
54599;SDS011;40500;51.084;16.958;2022-10-16T15:38:18;3.70;;;3.40;;
54599;SDS011;40500;51.084;16.958;2022-10-16T15:40:50;4.60;;;3.10;;
54599;SDS011;40500;51.084;16.958;2022-10-16T15:43:20;4.60;;;3.50;;
54599;SDS011;40500;51.084;16.958;2022-10-16T15:45:59;4.40;;;3.30;;
54599;SDS011;40500;51.084;16.958;2022-10-16T15:48:31;4.00;;;3.40;;
54599;SDS011;40500;51.084;16.958;2022-10-16T15:51:02;4.40;;;3.80;;
54599;SDS011;40500;51.084;16.958;2022-10-16T15:53:35;4.60;;;4.00;;
54599;SDS011;40500;51.084;16.958;2022-10-16T15:56:05;4.70;;;4.10;;
54599;SDS011;40500;51.084;16.958;2022-10-16T15:58:38;4.40;;;4.00;;
54599;SDS011;40500;51.084;16.958;2022-10-16T16:01:08;4.90;;;4.30;;
54599;SDS011;40500;51.084;16.958;2022-10-16T16:03:39;8.90;;;4.00;;
54599;SDS011;40500;51.084;16.958;2022-10-16T16:06:10;6.20;;;4.60;;
54599;SDS011;40500;51.084;16.958;2022-10-16T16:08:41;4.80;;;4.00;;
54599;SDS011;40500;51.084;16.958;2022-10-16T16:11:13;7.40;;;4.20;;
54599;SDS011;40500;51.084;16.958;2022-10-16T16:13:45;6.00;;;4.50;;
54599;SDS011;40500;51.084;16.958;2022-10-16T16:16:15;4.60;;;4.20;;
54599;SDS011;40500;51.084;16.958;2022-10-16T16:18:47;5.20;;;4.30;;
54599;SDS011;40500;51.084;16.958;2022-10-16T16:21:20;5.90;;;4.20;;
54599;SDS011;40500;51.084;16.958;2022-10-16T16:23:51;5.90;;;4.80;;
54599;SDS011;40500;51.084;16.958;2022-10-16T16:26:23;4.90;;;4.40;;
54599;SDS011;40500;51.084;16.958;2022-10-16T16:28:55;5.30;;;4.10;;
54599;SDS011;40500;51.084;16.958;2022-10-16T16:31:25;4.60;;;3.80;;
54599;SDS011;40500;51.084;16.958;2022-10-16T16:33:57;9.60;;;4.20;;
54599;SDS011;40500;51.084;16.958;2022-10-16T16:36:27;6.70;;;4.90;;
54599;SDS011;40500;51.084;16.958;2022-10-16T16:38:57;5.70;;;4.70;;
54599;SDS011;40500;51.084;16.958;2022-10-16T16:41:28;7.60;;;5.30;;
54599;SDS011;40500;51.084;16.958;2022-10-16T16:44:02;7.90;;;5.10;;
54599;SDS011;40500;51.084;16.958;2022-10-16T16:46:35;6.20;;;4.60;;
54599;SDS011;40500;51.084;16.958;2022-10-16T16:49:06;6.90;;;4.80;;
54599;SDS011;40500;51.084;16.958;2022-10-16T16:51:38;5.30;;;4.80;;
54599;SDS011;40500;51.084;16.958;2022-10-16T16:54:08;7.90;;;5.90;;
54599;SDS011;40500;51.084;16.958;2022-10-16T16:56:40;6.20;;;5.20;;
54599;SDS011;40500;51.084;16.958;2022-10-16T16:59:13;6.20;;;5.20;;
54599;SDS011;40500;51.084;16.958;2022-10-16T17:01:45;7.70;;;5.30;;
54599;SDS011;40500;51.084;16.958;2022-10-16T17:04:23;6.20;;;5.50;;
54599;SDS011;40500;51.084;16.958;2022-10-16T17:06:53;8.40;;;6.50;;
54599;SDS011;40500;51.084;16.958;2022-10-16T17:09:24;6.90;;;6.00;;
54599;SDS011;40500;51.084;16.958;2022-10-16T17:11:54;10.20;;;7.30;;
54599;SDS011;40500;51.084;16.958;2022-10-16T17:14:26;8.50;;;7.00;;
54599;SDS011;40500;51.084;16.958;2022-10-16T17:16:57;9.70;;;7.20;;
54599;SDS011;40500;51.084;16.958;2022-10-16T17:19:27;10.00;;;7.80;;
54599;SDS011;40500;51.084;16.958;2022-10-16T17:21:58;12.10;;;7.40;;
54599;SDS011;40500;51.084;16.958;2022-10-16T17:24:33;10.10;;;7.60;;
54599;SDS011;40500;51.084;16.958;2022-10-16T17:27:03;10.90;;;7.30;;
54599;SDS011;40500;51.084;16.958;2022-10-16T17:29:33;8.10;;;6.00;;
54599;SDS011;40500;51.084;16.958;2022-10-16T17:32:04;11.20;;;7.30;;
54599;SDS011;40500;51.084;16.958;2022-10-16T17:34:34;9.80;;;7.10;;
54599;SDS011;40500;51.084;16.958;2022-10-16T17:37:04;17.30;;;7.90;;
54599;SDS011;40500;51.084;16.958;2022-10-16T17:39:34;9.40;;;7.20;;
54599;SDS011;40500;51.084;16.958;2022-10-16T17:42:05;9.30;;;6.80;;
54599;SDS011;40500;51.084;16.958;2022-10-16T17:44:35;12.80;;;7.40;;
54599;SDS011;40500;51.084;16.958;2022-10-16T17:47:05;8.20;;;7.10;;
54599;SDS011;40500;51.084;16.958;2022-10-16T17:49:36;10.50;;;8.50;;
54599;SDS011;40500;51.084;16.958;2022-10-16T17:52:06;12.50;;;8.80;;
54599;SDS011;40500;51.084;16.958;2022-10-16T17:54:36;11.30;;;9.00;;
54599;SDS011;40500;51.084;16.958;2022-10-16T17:57:07;17.70;;;10.70;;
54599;SDS011;40500;51.084;16.958;2022-10-16T17:59:37;8.80;;;7.90;;
54599;SDS011;40500;51.084;16.958;2022-10-16T18:02:09;12.60;;;7.80;;
54599;SDS011;40500;51.084;16.958;2022-10-16T18:04:39;13.40;;;8.70;;
54599;SDS011;40500;51.084;16.958;2022-10-16T18:07:09;12.80;;;9.30;;
54599;SDS011;40500;51.084;16.958;2022-10-16T18:09:42;10.60;;;8.70;;
54599;SDS011;40500;51.084;16.958;2022-10-16T18:12:32;9.90;;;8.00;;
54599;SDS011;40500;51.084;16.958;2022-10-16T18:15:03;9.00;;;7.40;;
54599;SDS011;40500;51.084;16.958;2022-10-16T18:17:34;11.40;;;8.60;;
54599;SDS011;40500;51.084;16.958;2022-10-16T18:20:06;11.20;;;8.70;;
54599;SDS011;40500;51.084;16.958;2022-10-16T18:22:37;15.10;;;9.00;;
54599;SDS011;40500;51.084;16.958;2022-10-16T18:25:07;11.70;;;8.80;;
54599;SDS011;40500;51.084;16.958;2022-10-16T18:27:38;14.80;;;9.80;;
54599;SDS011;40500;51.084;16.958;2022-10-16T18:30:09;14.70;;;9.50;;
54599;SDS011;40500;51.084;16.958;2022-10-16T18:32:40;13.90;;;9.70;;
54599;SDS011;40500;51.084;16.958;2022-10-16T18:35:10;15.00;;;9.40;;
54599;SDS011;40500;51.084;16.958;2022-10-16T18:37:41;15.20;;;9.90;;
54599;SDS011;40500;51.084;16.958;2022-10-16T18:40:11;12.50;;;9.70;;
54599;SDS011;40500;51.084;16.958;2022-10-16T18:42:41;14.30;;;9.50;;